Bridgman, Michigan
Current Conditions -  °F | °C
As of 7:25 PM on Thursday 27 Nov 2014 (Local Time) from KBEH Reporting Station
Overcast Overcast  
Wind Chill: 15°   Ceiling: 2900
Heat Index: 25°   Visibility: 9mi
Dew Point: 18°   Wind: 10mph
Humidity: 75%   Direction: 310°NW
Pressure: 30.36"   Gusts: 21mph
Location:  41.94°N, 86.56°W
Report Text: KBEH 280025Z AUTO 31009G18KT 280V340 9SM FEW020 BKN029 OVC043 M04/M08 A3036 RMK AO2 SNE22 P0000 T10391078
Loading
Personal Weather Stations






























Interactive Weather Map New forecast layout! Learn more

10-Day Weather Forecast

Advertisements
Track Severe Weather on mobile